createdAt,value
2022-08-31T00:00:31.126Z,4.57
2022-08-31T00:03:16.754Z,4.07
2022-08-31T00:05:44.869Z,3.65
2022-08-31T00:08:12.919Z,3.55
2022-08-31T00:10:46.242Z,4.63
2022-08-31T00:13:15.105Z,4.17
2022-08-31T00:15:43.642Z,4.47
2022-08-31T00:18:12.354Z,3.65
2022-08-31T00:20:40.969Z,3.45
2022-08-31T00:23:12.060Z,2.95
2022-08-31T00:25:43.957Z,2.88
2022-08-31T00:28:13.365Z,2.97
2022-08-31T00:30:42.317Z,2.42
2022-08-31T00:33:11.575Z,2.13
2022-08-31T00:35:41.936Z,2.25
2022-08-31T00:38:11.417Z,1.58
2022-08-31T00:40:45.005Z,1.58
2022-08-31T00:43:32.131Z,1.80
2022-08-31T00:46:00.237Z,1.45
2022-08-31T00:48:28.447Z,1.80
2022-08-31T00:50:57.181Z,1.65
2022-08-31T00:53:25.911Z,1.35
2022-08-31T00:55:54.205Z,1.40
2022-08-31T00:58:23.862Z,1.60
2022-08-31T01:00:52.903Z,1.35
2022-08-31T01:03:22.903Z,1.50
2022-08-31T01:05:52.084Z,1.75
2022-08-31T01:08:21.542Z,1.60
2022-08-31T01:10:57.745Z,1.30
2022-08-31T01:13:27.517Z,1.30
2022-08-31T01:16:01.457Z,1.55
2022-08-31T01:18:30.795Z,1.52
2022-08-31T01:21:09.749Z,1.40
2022-08-31T01:23:43.858Z,1.50
2022-08-31T01:26:16.841Z,1.55
2022-08-31T01:28:45.809Z,1.35
2022-08-31T01:31:21.683Z,2.03
2022-08-31T01:33:50.267Z,1.92
2022-08-31T01:36:19.233Z,1.33
2022-08-31T01:38:52.807Z,1.50
2022-08-31T01:43:49.903Z,1.50
2022-08-31T01:46:18.096Z,1.52
2022-08-31T01:48:47.857Z,1.77
2022-08-31T01:51:18.181Z,1.83
2022-08-31T01:53:49.680Z,1.92
2022-08-31T01:56:22.344Z,1.60
2022-08-31T01:58:50.827Z,1.77
2022-08-31T02:01:32.890Z,1.40
2022-08-31T02:04:03.279Z,1.88
2022-08-31T02:06:31.748Z,1.67
2022-08-31T02:09:01.501Z,1.90
2022-08-31T02:11:29.568Z,2.17
2022-08-31T02:13:57.568Z,2.47
2022-08-31T02:16:25.875Z,1.92
2022-08-31T02:18:54.018Z,2.15
2022-08-31T02:21:22.202Z,2.45
2022-08-31T02:23:50.298Z,2.38
2022-08-31T02:26:19.992Z,2.13
2022-08-31T02:28:48.488Z,2.38
2022-08-31T02:31:16.786Z,2.33
2022-08-31T02:33:45.617Z,1.60
2022-08-31T02:36:13.845Z,1.17
2022-08-31T02:38:41.899Z,1.70
2022-08-31T02:41:11.177Z,1.38
2022-08-31T02:43:40.616Z,1.75
2022-08-31T02:46:08.825Z,1.77
2022-08-31T02:48:37.333Z,2.05
2022-08-31T02:51:07.989Z,2.47
2022-08-31T02:53:36.365Z,2.05
2022-08-31T02:56:05.340Z,2.30
2022-08-31T02:58:33.673Z,3.25
2022-08-31T03:01:03.484Z,3.10
2022-08-31T03:03:31.573Z,2.53
2022-08-31T03:05:59.628Z,3.60
2022-08-31T03:08:27.677Z,2.55
2022-08-31T03:10:59.258Z,2.85
2022-08-31T03:13:27.340Z,2.45
2022-08-31T03:15:55.382Z,2.60
2022-08-31T03:18:24.908Z,2.30
2022-08-31T03:20:52.927Z,2.03
2022-08-31T03:23:20.985Z,2.45
2022-08-31T03:25:49.314Z,2.10
2022-08-31T03:28:17.462Z,2.30
2022-08-31T03:30:46.086Z,2.15
2022-08-31T03:33:14.787Z,2.35
2022-08-31T03:35:44.853Z,2.20
2022-08-31T03:38:14.024Z,2.38
2022-08-31T03:40:42.782Z,2.03
2022-08-31T03:43:12.003Z,2.35
2022-08-31T03:45:41.427Z,2.63
2022-08-31T03:48:12.889Z,2.00
2022-08-31T03:50:43.505Z,2.33
2022-08-31T03:53:12.670Z,2.22
2022-08-31T03:55:43.691Z,1.80
2022-08-31T03:58:13.034Z,2.05
2022-08-31T04:00:43.786Z,1.95
2022-08-31T04:03:14.031Z,2.20
2022-08-31T04:05:45.356Z,1.85
2022-08-31T04:08:14.137Z,2.08
2022-08-31T04:10:43.727Z,2.17
2022-08-31T04:13:12.144Z,1.95
2022-08-31T04:15:40.764Z,1.80
2022-08-31T04:18:09.350Z,1.63
2022-08-31T04:20:39.893Z,1.98
2022-08-31T04:23:09.782Z,1.73
2022-08-31T04:25:41.894Z,1.90
2022-08-31T04:28:10.527Z,1.60
2022-08-31T04:30:40.314Z,1.80
2022-08-31T04:33:08.435Z,2.10
2022-08-31T04:35:36.730Z,2.25
2022-08-31T04:38:04.726Z,1.70
2022-08-31T04:40:34.109Z,1.63
2022-08-31T04:43:02.097Z,1.85
2022-08-31T04:45:30.293Z,1.45
2022-08-31T04:47:58.577Z,1.23
2022-08-31T04:50:26.664Z,1.02
2022-08-31T04:53:03.210Z,0.90
2022-08-31T04:55:33.438Z,1.20
2022-08-31T04:58:01.454Z,1.17
2022-08-31T05:00:29.454Z,1.35
2022-08-31T05:02:57.562Z,1.48
2022-08-31T05:05:25.591Z,1.40
2022-08-31T05:07:53.843Z,1.40
2022-08-31T05:10:23.392Z,1.30
2022-08-31T05:12:52.866Z,1.55
2022-08-31T05:15:20.895Z,1.40
2022-08-31T05:17:49.101Z,1.00
2022-08-31T05:20:17.205Z,1.23
2022-08-31T05:22:45.263Z,1.10
2022-08-31T05:25:13.322Z,1.02
2022-08-31T05:27:42.123Z,1.00
2022-08-31T05:30:13.406Z,1.30
2022-08-31T05:32:41.434Z,1.40
2022-08-31T05:35:09.697Z,1.65
2022-08-31T05:37:37.762Z,1.45
2022-08-31T05:40:06.990Z,1.13
2022-08-31T05:42:35.240Z,1.30
2022-08-31T05:45:03.310Z,1.50
2022-08-31T05:47:32.830Z,1.40
2022-08-31T05:50:00.793Z,1.15
2022-08-31T05:52:29.869Z,1.35
2022-08-31T05:54:58.365Z,1.30
2022-08-31T05:57:26.983Z,1.10
2022-08-31T05:59:55.080Z,0.90
2022-08-31T06:02:27.605Z,1.20
2022-08-31T06:04:59.316Z,1.10
2022-08-31T06:07:27.751Z,1.10
2022-08-31T06:09:55.830Z,1.27
2022-08-31T06:12:25.931Z,1.33
2022-08-31T06:14:55.373Z,1.20
2022-08-31T06:17:24.320Z,1.00
2022-08-31T06:19:52.529Z,0.93
2022-08-31T06:22:21.888Z,1.00
2022-08-31T06:24:49.916Z,1.13
2022-08-31T06:27:18.775Z,1.00
2022-08-31T06:29:47.236Z,1.10
2022-08-31T06:32:15.791Z,1.48
2022-08-31T06:34:44.343Z,1.48
2022-08-31T06:37:18.375Z,1.67
2022-08-31T06:39:48.758Z,1.73
2022-08-31T06:42:16.795Z,2.47
2022-08-31T06:44:45.276Z,1.70
2022-08-31T06:47:13.365Z,1.45
2022-08-31T06:49:41.425Z,1.42
2022-08-31T06:52:09.609Z,1.85
2022-08-31T06:54:37.828Z,2.00
2022-08-31T06:57:07.433Z,1.70
2022-08-31T06:59:35.568Z,1.70
2022-08-31T07:02:04.291Z,1.20
2022-08-31T07:04:34.183Z,2.08
2022-08-31T07:07:02.618Z,1.63
2022-08-31T07:09:30.633Z,1.30
2022-08-31T07:11:58.650Z,1.30
2022-08-31T07:14:28.600Z,1.70
2022-08-31T07:16:58.075Z,1.73
2022-08-31T07:19:27.513Z,2.17
2022-08-31T07:21:57.579Z,1.90
2022-08-31T07:24:30.451Z,1.45
2022-08-31T07:27:02.362Z,1.98
2022-08-31T07:29:40.408Z,1.60
2022-08-31T07:32:09.902Z,1.83
2022-08-31T07:34:38.836Z,1.95
2022-08-31T07:37:25.503Z,2.08
2022-08-31T07:40:11.103Z,2.30
2022-08-31T07:42:43.351Z,2.35
2022-08-31T07:45:19.988Z,2.22
2022-08-31T07:47:50.681Z,1.90
2022-08-31T07:50:19.882Z,1.95
2022-08-31T07:52:54.107Z,1.88
2022-08-31T07:55:24.512Z,2.30
2022-08-31T07:57:55.025Z,2.95
2022-08-31T08:00:26.858Z,2.10
2022-08-31T08:02:56.048Z,2.30
2022-08-31T08:05:29.240Z,2.20
2022-08-31T08:08:08.438Z,1.65
2022-08-31T08:10:41.883Z,1.40
2022-08-31T08:13:12.656Z,1.20
2022-08-31T08:15:42.164Z,1.90
2022-08-31T08:18:13.369Z,1.60
2022-08-31T08:20:41.687Z,2.65
2022-08-31T08:23:13.574Z,1.40
2022-08-31T08:25:43.246Z,0.90
2022-08-31T08:28:38.174Z,1.30
2022-08-31T08:31:07.940Z,0.90
2022-08-31T08:33:36.921Z,1.20
2022-08-31T08:36:08.733Z,1.20
2022-08-31T08:38:40.144Z,0.95
2022-08-31T08:41:13.884Z,0.98
2022-08-31T08:43:50.086Z,1.00
2022-08-31T08:46:37.067Z,1.23
2022-08-31T08:49:16.485Z,1.30
2022-08-31T08:51:48.300Z,1.05
2022-08-31T08:54:23.227Z,0.88
2022-08-31T08:56:51.440Z,1.20
2022-08-31T08:59:20.489Z,1.00
2022-08-31T09:01:53.134Z,1.08
2022-08-31T09:04:39.824Z,0.90
2022-08-31T09:07:27.319Z,1.00
2022-08-31T09:10:01.688Z,1.00
2022-08-31T09:12:38.470Z,1.00
2022-08-31T09:15:40.959Z,1.33
2022-08-31T09:18:26.488Z,1.00
2022-08-31T09:21:21.482Z,0.82
2022-08-31T09:23:57.461Z,1.38
2022-08-31T09:26:27.765Z,1.10
2022-08-31T09:28:57.003Z,1.08
2022-08-31T09:31:37.763Z,1.00
2022-08-31T09:34:14.275Z,1.33
2022-08-31T09:36:42.808Z,1.35
2022-08-31T09:39:19.788Z,0.98
2022-08-31T09:41:49.840Z,1.08
2022-08-31T09:44:32.630Z,1.00
2022-08-31T09:47:04.184Z,1.33
2022-08-31T09:49:36.777Z,1.10
2022-08-31T09:52:19.749Z,1.70
2022-08-31T09:55:13.342Z,1.05
2022-08-31T09:57:53.155Z,1.55
2022-08-31T10:00:36.301Z,1.20
2022-08-31T10:03:14.617Z,1.20
2022-08-31T10:05:44.631Z,1.20
2022-08-31T10:08:34.373Z,1.42
2022-08-31T10:11:10.351Z,0.80
2022-08-31T10:13:41.364Z,1.02
2022-08-31T10:16:17.102Z,1.00
2022-08-31T10:18:57.685Z,1.10
2022-08-31T10:21:39.064Z,1.00
2022-08-31T10:24:20.793Z,1.10
2022-08-31T10:26:54.488Z,1.13
2022-08-31T10:29:32.232Z,1.20
2022-08-31T10:32:06.027Z,1.10
2022-08-31T10:34:54.463Z,1.10
2022-08-31T10:37:31.416Z,1.13
2022-08-31T10:40:07.201Z,1.25
2022-08-31T10:42:39.041Z,1.20
2022-08-31T10:45:17.772Z,1.15
2022-08-31T10:47:49.325Z,1.08
2022-08-31T10:50:23.220Z,1.05
2022-08-31T10:53:03.340Z,1.10
2022-08-31T10:55:37.443Z,0.80
2022-08-31T10:58:12.786Z,1.60
2022-08-31T11:00:50.104Z,1.17
2022-08-31T11:03:25.152Z,1.15
2022-08-31T11:05:59.887Z,1.13
2022-08-31T11:08:49.803Z,0.90
2022-08-31T11:11:27.436Z,1.05
2022-08-31T11:14:17.158Z,1.10
2022-08-31T11:17:23.611Z,1.20
2022-08-31T11:20:12.424Z,1.30
2022-08-31T11:23:05.676Z,1.02
2022-08-31T11:26:07.056Z,0.75
2022-08-31T11:28:39.940Z,0.80
2022-08-31T11:31:14.712Z,1.15
2022-08-31T11:34:12.157Z,0.93
2022-08-31T11:36:54.844Z,0.90
2022-08-31T11:39:41.409Z,1.17
2022-08-31T11:42:49.338Z,1.20
2022-08-31T11:45:31.295Z,1.38
2022-08-31T11:48:00.589Z,1.20
2022-08-31T11:50:59.348Z,1.10
2022-08-31T11:53:35.883Z,1.10
2022-08-31T11:56:05.413Z,1.40
2022-08-31T11:58:38.379Z,1.30
2022-08-31T12:01:35.995Z,0.80
2022-08-31T12:04:04.441Z,1.10
2022-08-31T12:07:05.365Z,0.95
2022-08-31T12:10:04.593Z,1.08
2022-08-31T12:12:49.798Z,1.25
2022-08-31T12:15:24.451Z,1.60
2022-08-31T12:18:16.985Z,1.15
2022-08-31T12:21:13.079Z,1.00
2022-08-31T12:23:53.715Z,0.95
2022-08-31T12:26:44.417Z,1.20
2022-08-31T12:29:33.086Z,1.13
2022-08-31T12:32:19.217Z,1.00
2022-08-31T12:34:51.955Z,0.85
2022-08-31T12:37:25.348Z,1.20
2022-08-31T12:40:28.263Z,0.90
2022-08-31T12:43:03.573Z,0.95
2022-08-31T12:46:01.769Z,0.68
2022-08-31T12:48:46.926Z,0.70
2022-08-31T12:51:27.577Z,0.90
2022-08-31T12:54:15.670Z,0.80
2022-08-31T12:56:52.404Z,0.95
2022-08-31T12:59:57.438Z,0.80
2022-08-31T13:02:22.175Z,1.00
2022-08-31T13:04:52.237Z,1.20
2022-08-31T13:07:24.394Z,1.20
2022-08-31T13:10:06.326Z,0.90
2022-08-31T13:12:34.450Z,1.20
2022-08-31T13:15:02.656Z,0.93
2022-08-31T13:17:35.878Z,1.38
2022-08-31T13:20:07.125Z,1.42
2022-08-31T13:22:41.230Z,1.10
2022-08-31T13:27:49.586Z,1.27
2022-08-31T13:30:20.788Z,1.40
2022-08-31T13:32:51.433Z,0.90
2022-08-31T13:35:23.178Z,1.13
2022-08-31T13:38:05.409Z,1.10
2022-08-31T13:40:37.278Z,1.30
2022-08-31T13:43:08.430Z,1.00
2022-08-31T13:45:40.609Z,0.93
2022-08-31T13:48:13.403Z,1.05
2022-08-31T13:50:52.323Z,1.10
2022-08-31T13:53:39.771Z,1.17
2022-08-31T13:56:52.199Z,1.10
2022-08-31T13:59:27.752Z,1.60
2022-08-31T14:01:58.016Z,0.98
2022-08-31T14:05:00.386Z,0.77
2022-08-31T14:07:33.477Z,0.70
2022-08-31T14:10:05.427Z,1.00
2022-08-31T14:12:39.518Z,1.10
2022-08-31T14:15:19.509Z,1.00
2022-08-31T14:21:09.926Z,1.05
2022-08-31T14:23:37.312Z,0.80
2022-08-31T14:26:09.054Z,0.90
2022-08-31T14:28:43.727Z,1.00
2022-08-31T14:31:24.424Z,1.00
2022-08-31T14:34:02.003Z,1.10
2022-08-31T14:36:35.148Z,5.45
2022-08-31T14:39:04.606Z,3.47
2022-08-31T14:41:33.886Z,1.48
2022-08-31T14:44:09.484Z,1.80
2022-08-31T14:46:39.734Z,1.48
2022-08-31T14:49:08.418Z,1.40
2022-08-31T14:51:39.213Z,0.90
2022-08-31T14:54:09.941Z,1.25
2022-08-31T14:56:47.996Z,1.20
2022-08-31T14:59:19.819Z,1.20
2022-08-31T15:01:50.769Z,1.15
2022-08-31T15:04:21.719Z,1.00
2022-08-31T15:06:53.910Z,1.00
2022-08-31T15:09:23.465Z,1.00
2022-08-31T15:11:52.206Z,0.90
2022-08-31T15:14:20.841Z,1.13
2022-08-31T15:16:51.192Z,1.45
2022-08-31T15:19:19.299Z,1.33
2022-08-31T15:21:58.859Z,1.20
2022-08-31T15:24:32.676Z,1.58
2022-08-31T15:27:01.627Z,1.33
2022-08-31T15:29:30.344Z,0.90
2022-08-31T15:31:59.954Z,0.93
2022-08-31T15:34:31.147Z,1.00
2022-08-31T15:37:01.222Z,0.90
2022-08-31T15:39:35.080Z,1.08
2022-08-31T15:42:09.129Z,0.95
2022-08-31T15:47:23.274Z,1.00
2022-08-31T15:49:51.841Z,0.93
2022-08-31T15:52:20.601Z,1.13
2022-08-31T15:54:50.368Z,1.17
2022-08-31T15:57:19.042Z,1.02
2022-08-31T15:59:47.167Z,0.98
2022-08-31T16:02:20.926Z,1.00
2022-08-31T16:04:51.282Z,1.00
2022-08-31T16:07:22.634Z,0.90
2022-08-31T16:09:51.964Z,1.10
2022-08-31T16:12:21.157Z,1.05
2022-08-31T16:14:51.767Z,0.90
2022-08-31T16:17:20.165Z,0.85
2022-08-31T16:19:48.298Z,1.25
2022-08-31T16:22:17.417Z,0.95
2022-08-31T16:24:46.869Z,1.23
2022-08-31T16:27:18.308Z,1.10
2022-08-31T16:29:46.814Z,0.90
2022-08-31T16:32:15.223Z,1.15
2022-08-31T16:34:43.334Z,1.02
2022-08-31T16:37:11.405Z,0.95
2022-08-31T16:39:40.985Z,0.95
2022-08-31T16:42:11.897Z,1.00
2022-08-31T16:44:43.718Z,1.42
2022-08-31T16:47:12.693Z,0.80
2022-08-31T16:49:41.290Z,0.88
2022-08-31T16:52:11.485Z,1.00
2022-08-31T16:54:42.786Z,1.00
2022-08-31T16:57:11.010Z,1.02
2022-08-31T16:59:41.168Z,1.17
2022-08-31T17:02:12.335Z,1.02
2022-08-31T17:04:52.118Z,1.10
2022-08-31T17:07:23.103Z,0.85
2022-08-31T17:09:52.381Z,0.93
2022-08-31T17:12:21.637Z,0.80
2022-08-31T17:14:52.906Z,1.27
2022-08-31T17:17:25.181Z,1.00
2022-08-31T17:19:54.101Z,0.95
2022-08-31T17:22:31.824Z,0.70
2022-08-31T17:25:02.910Z,0.70
2022-08-31T17:27:33.054Z,0.90
2022-08-31T17:30:05.004Z,0.90
2022-08-31T17:32:37.290Z,1.23
2022-08-31T17:35:18.091Z,0.80
2022-08-31T17:37:46.618Z,1.00
2022-08-31T17:40:16.645Z,1.20
2022-08-31T17:42:45.292Z,1.15
2022-08-31T17:45:13.492Z,1.20
2022-08-31T17:47:42.882Z,1.20
2022-08-31T17:50:11.144Z,0.77
2022-08-31T17:52:39.145Z,0.90
2022-08-31T17:55:07.953Z,0.88
2022-08-31T17:57:36.001Z,0.90
2022-08-31T18:00:06.712Z,1.13
2022-08-31T18:02:35.036Z,1.00
2022-08-31T18:05:11.505Z,1.20
2022-08-31T18:07:40.686Z,1.30
2022-08-31T18:10:10.142Z,0.70
2022-08-31T18:12:41.936Z,1.00
2022-08-31T18:15:12.299Z,0.80
2022-08-31T18:17:40.663Z,1.25
2022-08-31T18:20:12.565Z,1.05
2022-08-31T18:22:41.989Z,1.00
2022-08-31T18:25:11.207Z,1.05
2022-08-31T18:27:39.260Z,1.08
2022-08-31T18:30:09.853Z,0.80
2022-08-31T18:32:38.035Z,1.10
2022-08-31T18:35:14.242Z,1.42
2022-08-31T18:37:42.623Z,1.35
2022-08-31T18:40:28.833Z,1.80
2022-08-31T18:43:14.743Z,1.60
2022-08-31T18:45:43.115Z,1.30
2022-08-31T18:48:24.786Z,1.25
2022-08-31T18:50:58.982Z,1.20
2022-08-31T18:53:29.254Z,1.70
2022-08-31T18:55:59.965Z,1.20
2022-08-31T18:58:28.783Z,1.08
2022-08-31T19:00:58.350Z,1.02
2022-08-31T19:03:27.486Z,1.52
2022-08-31T19:05:57.338Z,1.35
2022-08-31T19:08:26.257Z,0.95
2022-08-31T19:10:56.393Z,1.10
2022-08-31T19:13:24.501Z,1.17
2022-08-31T19:15:52.602Z,1.30
2022-08-31T19:18:20.963Z,1.05
2022-08-31T19:20:48.974Z,1.50
2022-08-31T19:23:20.187Z,1.17
2022-08-31T19:25:48.949Z,1.13
2022-08-31T19:28:17.030Z,1.17
2022-08-31T19:30:48.654Z,1.27
2022-08-31T19:33:17.651Z,1.52
2022-08-31T19:35:45.736Z,1.15
2022-08-31T19:38:14.336Z,1.00
2022-08-31T19:40:44.294Z,1.40
2022-08-31T19:46:16.221Z,1.02
2022-08-31T19:48:45.123Z,1.42
2022-08-31T19:51:14.420Z,1.30
2022-08-31T19:53:44.497Z,1.23
2022-08-31T19:56:17.659Z,1.13
2022-08-31T19:58:48.347Z,1.23
2022-08-31T20:01:18.218Z,1.13
2022-08-31T20:03:48.007Z,1.00
2022-08-31T20:06:19.246Z,1.13
2022-08-31T20:08:49.055Z,1.20
2022-08-31T20:11:22.075Z,0.98
2022-08-31T20:13:50.714Z,1.10
2022-08-31T20:16:19.745Z,1.15
2022-08-31T20:18:48.749Z,0.93
2022-08-31T20:21:19.849Z,0.85
2022-08-31T20:23:50.030Z,1.10
2022-08-31T20:26:23.451Z,0.82
2022-08-31T20:29:05.881Z,1.10
2022-08-31T20:31:34.097Z,1.13
2022-08-31T20:34:02.393Z,1.30
2022-08-31T20:36:38.004Z,1.70
2022-08-31T20:39:08.800Z,1.52
2022-08-31T20:41:40.540Z,2.08
2022-08-31T20:44:11.856Z,2.30
2022-08-31T20:47:01.814Z,1.80
2022-08-31T20:49:31.569Z,1.75
2022-08-31T20:52:01.853Z,1.60
2022-08-31T20:54:31.954Z,1.52
2022-08-31T20:57:04.390Z,1.58
2022-08-31T20:59:34.554Z,1.70
2022-08-31T21:02:05.550Z,1.50
2022-08-31T21:04:38.728Z,1.63
2022-08-31T21:07:08.112Z,1.33
2022-08-31T21:09:36.347Z,1.40
2022-08-31T21:12:07.364Z,1.90
2022-08-31T21:14:36.710Z,1.40
2022-08-31T21:17:06.294Z,1.55
2022-08-31T21:19:38.742Z,2.05
2022-08-31T21:22:08.250Z,2.03
2022-08-31T21:24:39.244Z,2.00
2022-08-31T21:27:11.389Z,2.00
2022-08-31T21:29:39.709Z,2.03
2022-08-31T21:32:10.545Z,1.70
2022-08-31T21:34:39.337Z,2.03
2022-08-31T21:37:09.285Z,1.70
2022-08-31T21:39:38.620Z,1.63
2022-08-31T21:42:08.591Z,1.73
2022-08-31T21:44:37.453Z,1.67
2022-08-31T21:47:05.894Z,1.70
2022-08-31T21:49:35.179Z,1.50
2022-08-31T21:52:03.611Z,1.70
2022-08-31T21:54:31.704Z,1.70
2022-08-31T21:57:01.628Z,1.40
2022-08-31T21:59:35.161Z,1.40
2022-08-31T22:02:06.434Z,1.45
2022-08-31T22:04:37.098Z,1.40
2022-08-31T22:07:07.776Z,1.42
2022-08-31T22:09:36.716Z,1.05
2022-08-31T22:12:06.782Z,1.00
2022-08-31T22:14:38.515Z,1.55
2022-08-31T22:17:08.317Z,1.20
2022-08-31T22:19:39.099Z,0.93
2022-08-31T22:22:11.722Z,1.00
2022-08-31T22:24:41.413Z,1.42
2022-08-31T22:27:11.760Z,1.15
2022-08-31T22:29:42.074Z,1.15
2022-08-31T22:32:15.272Z,0.95
2022-08-31T22:34:45.126Z,1.05
2022-08-31T22:37:14.278Z,1.10
2022-08-31T22:39:43.936Z,1.27
2022-08-31T22:42:13.134Z,1.40
2022-08-31T22:44:43.930Z,1.30
2022-08-31T22:47:12.005Z,1.30
2022-08-31T22:49:40.093Z,1.17
2022-08-31T22:52:08.058Z,1.23
2022-08-31T22:54:36.592Z,1.17
2022-08-31T22:57:04.899Z,1.33
2022-08-31T22:59:32.930Z,1.10
2022-08-31T23:09:36.512Z,1.17
2022-08-31T23:12:06.118Z,1.40
2022-08-31T23:14:34.745Z,0.95
2022-08-31T23:17:05.498Z,1.00
2022-08-31T23:19:36.953Z,1.45
2022-08-31T23:22:09.193Z,1.17
2022-08-31T23:24:41.230Z,1.15
2022-08-31T23:41:34.845Z,1.40
2022-08-31T23:44:09.612Z,1.55
